sensor_id;sensor_type;location;lat;lon;timestamp;P1;durP1;ratioP1;P2;durP2;ratioP2
47329;SDS011;33060;50.178;7.570;2023-03-19T00:00:32;3.15;;;1.63;;
47329;SDS011;33060;50.178;7.570;2023-03-19T00:02:59;5.28;;;1.83;;
47329;SDS011;33060;50.178;7.570;2023-03-19T00:05:26;3.85;;;1.65;;
47329;SDS011;33060;50.178;7.570;2023-03-19T00:07:53;3.03;;;1.60;;
47329;SDS011;33060;50.178;7.570;2023-03-19T00:10:19;3.03;;;1.60;;
47329;SDS011;33060;50.178;7.570;2023-03-19T00:12:46;3.75;;;1.55;;
47329;SDS011;33060;50.178;7.570;2023-03-19T00:15:13;3.75;;;1.52;;
47329;SDS011;33060;50.178;7.570;2023-03-19T00:17:40;4.22;;;1.70;;
47329;SDS011;33060;50.178;7.570;2023-03-19T00:20:09;4.22;;;1.90;;
47329;SDS011;33060;50.178;7.570;2023-03-19T00:22:37;4.50;;;1.73;;
47329;SDS011;33060;50.178;7.570;2023-03-19T00:25:05;2.78;;;1.80;;
47329;SDS011;33060;50.178;7.570;2023-03-19T00:27:33;4.93;;;1.92;;
47329;SDS011;33060;50.178;7.570;2023-03-19T00:30:02;5.30;;;1.80;;
47329;SDS011;33060;50.178;7.570;2023-03-19T00:32:30;3.42;;;1.85;;
47329;SDS011;33060;50.178;7.570;2023-03-19T00:34:59;4.53;;;1.90;;
47329;SDS011;33060;50.178;7.570;2023-03-19T00:37:26;4.10;;;1.75;;
47329;SDS011;33060;50.178;7.570;2023-03-19T00:39:53;4.32;;;2.28;;
47329;SDS011;33060;50.178;7.570;2023-03-19T00:42:20;4.85;;;2.10;;
47329;SDS011;33060;50.178;7.570;2023-03-19T00:44:47;4.82;;;1.80;;
47329;SDS011;33060;50.178;7.570;2023-03-19T00:47:14;4.32;;;2.35;;
47329;SDS011;33060;50.178;7.570;2023-03-19T00:49:41;4.65;;;2.15;;
47329;SDS011;33060;50.178;7.570;2023-03-19T00:52:07;5.13;;;2.00;;
47329;SDS011;33060;50.178;7.570;2023-03-19T00:54:34;4.10;;;1.95;;
47329;SDS011;33060;50.178;7.570;2023-03-19T00:57:01;3.40;;;1.70;;
47329;SDS011;33060;50.178;7.570;2023-03-19T00:59:28;3.78;;;2.20;;
47329;SDS011;33060;50.178;7.570;2023-03-19T01:02:04;4.35;;;2.00;;
47329;SDS011;33060;50.178;7.570;2023-03-19T01:04:31;3.30;;;2.10;;
47329;SDS011;33060;50.178;7.570;2023-03-19T01:06:58;3.75;;;2.13;;
47329;SDS011;33060;50.178;7.570;2023-03-19T01:09:28;3.38;;;2.30;;
47329;SDS011;33060;50.178;7.570;2023-03-19T01:11:55;3.55;;;2.30;;
47329;SDS011;33060;50.178;7.570;2023-03-19T01:14:22;6.30;;;2.90;;
47329;SDS011;33060;50.178;7.570;2023-03-19T01:16:49;5.25;;;3.05;;
47329;SDS011;33060;50.178;7.570;2023-03-19T01:19:15;7.70;;;3.40;;
47329;SDS011;33060;50.178;7.570;2023-03-19T01:21:42;4.65;;;3.30;;
47329;SDS011;33060;50.178;7.570;2023-03-19T01:24:14;5.28;;;3.67;;
47329;SDS011;33060;50.178;7.570;2023-03-19T01:26:43;5.95;;;3.20;;
47329;SDS011;33060;50.178;7.570;2023-03-19T01:29:39;4.32;;;2.75;;
47329;SDS011;33060;50.178;7.570;2023-03-19T01:32:15;5.43;;;2.83;;
47329;SDS011;33060;50.178;7.570;2023-03-19T01:35:00;3.95;;;2.83;;
47329;SDS011;33060;50.178;7.570;2023-03-19T01:37:27;6.55;;;4.07;;
47329;SDS011;33060;50.178;7.570;2023-03-19T01:39:54;4.03;;;3.15;;
47329;SDS011;33060;50.178;7.570;2023-03-19T01:42:21;6.05;;;3.47;;
47329;SDS011;33060;50.178;7.570;2023-03-19T01:49:24;3.88;;;2.70;;
47329;SDS011;33060;50.178;7.570;2023-03-19T01:51:26;4.80;;;2.72;;
47329;SDS011;33060;50.178;7.570;2023-03-19T01:54:01;4.15;;;2.47;;
47329;SDS011;33060;50.178;7.570;2023-03-19T01:56:36;3.88;;;2.42;;
47329;SDS011;33060;50.178;7.570;2023-03-19T01:59:47;3.72;;;2.70;;
47329;SDS011;33060;50.178;7.570;2023-03-19T02:02:41;4.70;;;2.45;;
47329;SDS011;33060;50.178;7.570;2023-03-19T02:05:45;5.78;;;2.88;;
47329;SDS011;33060;50.178;7.570;2023-03-19T02:08:15;4.45;;;2.65;;
47329;SDS011;33060;50.178;7.570;2023-03-19T02:10:45;3.78;;;2.00;;
47329;SDS011;33060;50.178;7.570;2023-03-19T02:13:13;4.13;;;1.88;;
47329;SDS011;33060;50.178;7.570;2023-03-19T02:15:41;3.25;;;2.00;;
47329;SDS011;33060;50.178;7.570;2023-03-19T02:18:08;7.18;;;2.42;;
47329;SDS011;33060;50.178;7.570;2023-03-19T02:23:42;4.15;;;2.25;;
47329;SDS011;33060;50.178;7.570;2023-03-19T02:26:12;5.10;;;2.10;;
47329;SDS011;33060;50.178;7.570;2023-03-19T02:28:42;8.85;;;2.03;;
47329;SDS011;33060;50.178;7.570;2023-03-19T02:31:14;3.58;;;2.17;;
47329;SDS011;33060;50.178;7.570;2023-03-19T02:33:42;4.07;;;1.70;;
47329;SDS011;33060;50.178;7.570;2023-03-19T02:36:12;3.05;;;1.63;;
47329;SDS011;33060;50.178;7.570;2023-03-19T02:38:42;2.75;;;1.70;;
47329;SDS011;33060;50.178;7.570;2023-03-19T02:41:11;6.20;;;2.00;;
47329;SDS011;33060;50.178;7.570;2023-03-19T02:43:40;4.85;;;1.95;;
47329;SDS011;33060;50.178;7.570;2023-03-19T02:46:09;4.18;;;2.25;;
47329;SDS011;33060;50.178;7.570;2023-03-19T02:48:39;3.40;;;2.10;;
47329;SDS011;33060;50.178;7.570;2023-03-19T02:51:06;4.57;;;2.47;;
47329;SDS011;33060;50.178;7.570;2023-03-19T02:53:33;3.37;;;2.13;;
47329;SDS011;33060;50.178;7.570;2023-03-19T02:56:00;6.50;;;2.40;;
47329;SDS011;33060;50.178;7.570;2023-03-19T02:58:27;3.75;;;2.20;;
47329;SDS011;33060;50.178;7.570;2023-03-19T03:00:54;6.90;;;2.40;;
47329;SDS011;33060;50.178;7.570;2023-03-19T03:03:21;4.93;;;2.23;;
47329;SDS011;33060;50.178;7.570;2023-03-19T03:05:47;4.80;;;2.67;;
47329;SDS011;33060;50.178;7.570;2023-03-19T03:08:14;4.60;;;3.00;;
47329;SDS011;33060;50.178;7.570;2023-03-19T03:10:41;4.10;;;2.60;;
47329;SDS011;33060;50.178;7.570;2023-03-19T03:13:07;5.00;;;3.23;;
47329;SDS011;33060;50.178;7.570;2023-03-19T03:15:34;6.17;;;2.83;;
47329;SDS011;33060;50.178;7.570;2023-03-19T03:18:01;7.23;;;2.73;;
47329;SDS011;33060;50.178;7.570;2023-03-19T03:20:27;2.80;;;2.23;;
47329;SDS011;33060;50.178;7.570;2023-03-19T03:22:55;8.27;;;2.97;;
47329;SDS011;33060;50.178;7.570;2023-03-19T03:25:21;4.93;;;3.00;;
47329;SDS011;33060;50.178;7.570;2023-03-19T03:27:48;4.93;;;2.87;;
47329;SDS011;33060;50.178;7.570;2023-03-19T03:30:15;4.23;;;2.30;;
47329;SDS011;33060;50.178;7.570;2023-03-19T03:32:42;4.80;;;2.37;;
47329;SDS011;33060;50.178;7.570;2023-03-19T03:35:09;5.43;;;2.13;;
47329;SDS011;33060;50.178;7.570;2023-03-19T03:37:36;5.20;;;2.33;;
47329;SDS011;33060;50.178;7.570;2023-03-19T03:40:04;5.53;;;2.60;;
47329;SDS011;33060;50.178;7.570;2023-03-19T03:42:35;3.30;;;2.10;;
47329;SDS011;33060;50.178;7.570;2023-03-19T03:45:04;4.00;;;2.37;;
47329;SDS011;33060;50.178;7.570;2023-03-19T03:47:32;4.23;;;2.53;;
47329;SDS011;33060;50.178;7.570;2023-03-19T03:49:59;5.80;;;2.20;;
47329;SDS011;33060;50.178;7.570;2023-03-19T03:52:26;3.37;;;2.37;;
47329;SDS011;33060;50.178;7.570;2023-03-19T03:54:57;4.13;;;2.27;;
47329;SDS011;33060;50.178;7.570;2023-03-19T03:57:24;3.10;;;2.30;;
47329;SDS011;33060;50.178;7.570;2023-03-19T03:59:53;5.17;;;2.33;;
47329;SDS011;33060;50.178;7.570;2023-03-19T04:02:21;5.00;;;2.40;;
47329;SDS011;33060;50.178;7.570;2023-03-19T04:04:58;3.97;;;2.50;;
47329;SDS011;33060;50.178;7.570;2023-03-19T04:07:25;3.20;;;2.17;;
47329;SDS011;33060;50.178;7.570;2023-03-19T04:09:55;4.00;;;2.47;;
47329;SDS011;33060;50.178;7.570;2023-03-19T04:12:23;5.67;;;2.80;;
47329;SDS011;33060;50.178;7.570;2023-03-19T04:14:50;3.40;;;2.53;;
47329;SDS011;33060;50.178;7.570;2023-03-19T04:17:17;4.67;;;2.50;;
47329;SDS011;33060;50.178;7.570;2023-03-19T04:19:43;4.83;;;2.60;;
47329;SDS011;33060;50.178;7.570;2023-03-19T04:22:10;4.13;;;2.33;;
47329;SDS011;33060;50.178;7.570;2023-03-19T04:24:37;2.97;;;2.60;;
47329;SDS011;33060;50.178;7.570;2023-03-19T04:27:04;3.73;;;3.10;;
47329;SDS011;33060;50.178;7.570;2023-03-19T04:29:33;3.90;;;2.83;;
47329;SDS011;33060;50.178;7.570;2023-03-19T04:32:00;4.97;;;3.20;;
47329;SDS011;33060;50.178;7.570;2023-03-19T04:34:27;3.67;;;3.27;;
47329;SDS011;33060;50.178;7.570;2023-03-19T04:36:53;4.93;;;3.40;;
47329;SDS011;33060;50.178;7.570;2023-03-19T04:39:20;5.47;;;3.60;;
47329;SDS011;33060;50.178;7.570;2023-03-19T04:41:46;4.33;;;2.80;;
47329;SDS011;33060;50.178;7.570;2023-03-19T04:44:36;4.70;;;2.33;;
47329;SDS011;33060;50.178;7.570;2023-03-19T04:47:03;4.33;;;2.33;;
47329;SDS011;33060;50.178;7.570;2023-03-19T04:49:40;4.40;;;1.90;;
47329;SDS011;33060;50.178;7.570;2023-03-19T04:52:07;3.10;;;2.30;;
47329;SDS011;33060;50.178;7.570;2023-03-19T04:54:34;4.50;;;2.10;;
47329;SDS011;33060;50.178;7.570;2023-03-19T04:57:01;4.73;;;2.10;;
47329;SDS011;33060;50.178;7.570;2023-03-19T04:59:33;3.53;;;2.23;;
47329;SDS011;33060;50.178;7.570;2023-03-19T05:02:04;2.93;;;2.20;;
47329;SDS011;33060;50.178;7.570;2023-03-19T05:04:33;3.03;;;2.37;;
47329;SDS011;33060;50.178;7.570;2023-03-19T05:07:05;3.53;;;2.60;;
47329;SDS011;33060;50.178;7.570;2023-03-19T05:09:33;4.80;;;2.20;;
47329;SDS011;33060;50.178;7.570;2023-03-19T05:12:00;3.40;;;2.60;;
47329;SDS011;33060;50.178;7.570;2023-03-19T05:14:30;5.47;;;2.50;;
47329;SDS011;33060;50.178;7.570;2023-03-19T05:17:04;4.93;;;2.80;;
47329;SDS011;33060;50.178;7.570;2023-03-19T05:19:43;5.17;;;2.50;;
47329;SDS011;33060;50.178;7.570;2023-03-19T05:22:10;3.87;;;2.23;;
47329;SDS011;33060;50.178;7.570;2023-03-19T05:24:37;4.18;;;2.05;;
47329;SDS011;33060;50.178;7.570;2023-03-19T05:27:04;3.57;;;2.33;;
47329;SDS011;33060;50.178;7.570;2023-03-19T05:29:38;4.17;;;2.47;;
47329;SDS011;33060;50.178;7.570;2023-03-19T05:32:24;3.60;;;2.37;;
47329;SDS011;33060;50.178;7.570;2023-03-19T05:34:52;4.00;;;2.23;;
47329;SDS011;33060;50.178;7.570;2023-03-19T05:37:18;3.23;;;2.20;;
47329;SDS011;33060;50.178;7.570;2023-03-19T05:39:51;3.60;;;2.27;;
47329;SDS011;33060;50.178;7.570;2023-03-19T05:42:17;2.67;;;2.10;;
47329;SDS011;33060;50.178;7.570;2023-03-19T05:44:44;4.53;;;1.97;;
47329;SDS011;33060;50.178;7.570;2023-03-19T05:47:23;3.27;;;2.10;;
47329;SDS011;33060;50.178;7.570;2023-03-19T05:49:53;4.47;;;2.10;;
47329;SDS011;33060;50.178;7.570;2023-03-19T05:52:20;2.93;;;1.90;;
47329;SDS011;33060;50.178;7.570;2023-03-19T05:54:48;3.00;;;2.10;;
47329;SDS011;33060;50.178;7.570;2023-03-19T05:57:31;2.60;;;1.77;;
47329;SDS011;33060;50.178;7.570;2023-03-19T06:00:17;5.47;;;2.40;;
47329;SDS011;33060;50.178;7.570;2023-03-19T06:02:54;2.80;;;1.90;;
47329;SDS011;33060;50.178;7.570;2023-03-19T06:05:40;3.25;;;2.10;;
47329;SDS011;33060;50.178;7.570;2023-03-19T06:08:19;3.88;;;3.38;;
47329;SDS011;33060;50.178;7.570;2023-03-19T06:11:04;8.57;;;5.70;;
47329;SDS011;33060;50.178;7.570;2023-03-19T06:13:32;6.70;;;4.90;;
47329;SDS011;33060;50.178;7.570;2023-03-19T06:16:05;5.20;;;2.75;;
47329;SDS011;33060;50.178;7.570;2023-03-19T06:18:35;3.87;;;2.50;;
47329;SDS011;33060;50.178;7.570;2023-03-19T06:21:08;2.90;;;1.90;;
47329;SDS011;33060;50.178;7.570;2023-03-19T06:23:35;2.00;;;1.60;;
47329;SDS011;33060;50.178;7.570;2023-03-19T06:26:03;2.83;;;1.80;;
47329;SDS011;33060;50.178;7.570;2023-03-19T06:28:39;2.22;;;1.80;;
47329;SDS011;33060;50.178;7.570;2023-03-19T06:31:06;3.27;;;2.27;;
47329;SDS011;33060;50.178;7.570;2023-03-19T06:33:55;2.33;;;2.10;;
47329;SDS011;33060;50.178;7.570;2023-03-19T06:36:28;2.72;;;1.83;;
47329;SDS011;33060;50.178;7.570;2023-03-19T06:38:55;4.03;;;2.20;;
47329;SDS011;33060;50.178;7.570;2023-03-19T06:41:21;2.00;;;1.40;;
47329;SDS011;33060;50.178;7.570;2023-03-19T06:43:50;2.33;;;1.83;;
47329;SDS011;33060;50.178;7.570;2023-03-19T06:46:17;2.47;;;2.00;;
47329;SDS011;33060;50.178;7.570;2023-03-19T06:48:44;3.35;;;2.00;;
47329;SDS011;33060;50.178;7.570;2023-03-19T06:51:11;1.90;;;1.63;;
47329;SDS011;33060;50.178;7.570;2023-03-19T06:53:37;1.98;;;1.60;;
47329;SDS011;33060;50.178;7.570;2023-03-19T06:56:05;3.17;;;1.77;;
47329;SDS011;33060;50.178;7.570;2023-03-19T06:58:31;2.58;;;1.70;;
47329;SDS011;33060;50.178;7.570;2023-03-19T07:00:58;3.70;;;1.70;;
47329;SDS011;33060;50.178;7.570;2023-03-19T07:03:25;4.38;;;2.30;;
47329;SDS011;33060;50.178;7.570;2023-03-19T07:05:51;4.70;;;2.05;;
47329;SDS011;33060;50.178;7.570;2023-03-19T07:08:18;2.05;;;1.48;;
47329;SDS011;33060;50.178;7.570;2023-03-19T07:10:45;2.15;;;1.70;;
47329;SDS011;33060;50.178;7.570;2023-03-19T07:13:12;1.70;;;1.45;;
47329;SDS011;33060;50.178;7.570;2023-03-19T07:15:39;2.70;;;1.90;;
47329;SDS011;33060;50.178;7.570;2023-03-19T07:18:05;3.50;;;1.80;;
47329;SDS011;33060;50.178;7.570;2023-03-19T07:20:32;2.30;;;1.92;;
47329;SDS011;33060;50.178;7.570;2023-03-19T07:22:59;2.63;;;2.00;;
47329;SDS011;33060;50.178;7.570;2023-03-19T07:25:26;3.15;;;1.80;;
47329;SDS011;33060;50.178;7.570;2023-03-19T07:27:52;3.65;;;1.70;;
47329;SDS011;33060;50.178;7.570;2023-03-19T07:30:21;2.00;;;1.70;;
47329;SDS011;33060;50.178;7.570;2023-03-19T07:32:48;2.92;;;1.90;;
47329;SDS011;33060;50.178;7.570;2023-03-19T07:35:14;2.10;;;1.42;;
47329;SDS011;33060;50.178;7.570;2023-03-19T07:37:41;2.50;;;1.80;;
47329;SDS011;33060;50.178;7.570;2023-03-19T07:40:08;2.75;;;2.08;;
47329;SDS011;33060;50.178;7.570;2023-03-19T07:42:35;3.67;;;2.03;;
47329;SDS011;33060;50.178;7.570;2023-03-19T07:45:03;2.40;;;2.20;;
47329;SDS011;33060;50.178;7.570;2023-03-19T07:47:31;3.10;;;2.35;;
47329;SDS011;33060;50.178;7.570;2023-03-19T07:49:58;3.22;;;2.38;;
47329;SDS011;33060;50.178;7.570;2023-03-19T07:52:24;2.00;;;1.60;;
47329;SDS011;33060;50.178;7.570;2023-03-19T07:54:52;3.03;;;1.92;;
47329;SDS011;33060;50.178;7.570;2023-03-19T07:57:18;2.10;;;1.48;;
47329;SDS011;33060;50.178;7.570;2023-03-19T07:59:46;2.92;;;1.77;;
47329;SDS011;33060;50.178;7.570;2023-03-19T08:02:13;2.85;;;1.60;;
47329;SDS011;33060;50.178;7.570;2023-03-19T08:04:40;2.45;;;1.48;;
47329;SDS011;33060;50.178;7.570;2023-03-19T08:07:07;2.92;;;1.90;;
47329;SDS011;33060;50.178;7.570;2023-03-19T08:09:36;3.60;;;1.52;;
47329;SDS011;33060;50.178;7.570;2023-03-19T08:12:03;2.22;;;1.80;;
47329;SDS011;33060;50.178;7.570;2023-03-19T08:14:29;2.92;;;2.03;;
47329;SDS011;33060;50.178;7.570;2023-03-19T08:16:56;3.03;;;1.90;;
47329;SDS011;33060;50.178;7.570;2023-03-19T08:19:23;2.28;;;1.48;;
47329;SDS011;33060;50.178;7.570;2023-03-19T08:21:49;2.30;;;1.40;;
47329;SDS011;33060;50.178;7.570;2023-03-19T08:24:16;2.28;;;1.50;;
47329;SDS011;33060;50.178;7.570;2023-03-19T08:26:44;3.55;;;1.85;;
47329;SDS011;33060;50.178;7.570;2023-03-19T08:29:10;2.30;;;1.80;;
47329;SDS011;33060;50.178;7.570;2023-03-19T08:31:37;2.22;;;1.58;;
47329;SDS011;33060;50.178;7.570;2023-03-19T08:34:04;3.42;;;2.13;;
47329;SDS011;33060;50.178;7.570;2023-03-19T08:36:31;3.15;;;1.80;;
47329;SDS011;33060;50.178;7.570;2023-03-19T08:38:58;3.03;;;1.55;;
47329;SDS011;33060;50.178;7.570;2023-03-19T08:41:24;2.95;;;1.90;;
47329;SDS011;33060;50.178;7.570;2023-03-19T08:43:51;2.72;;;1.58;;
47329;SDS011;33060;50.178;7.570;2023-03-19T08:46:18;2.67;;;1.50;;
47329;SDS011;33060;50.178;7.570;2023-03-19T08:48:45;2.72;;;1.30;;
47329;SDS011;33060;50.178;7.570;2023-03-19T08:51:13;2.42;;;1.20;;
47329;SDS011;33060;50.178;7.570;2023-03-19T08:53:39;1.63;;;1.30;;
47329;SDS011;33060;50.178;7.570;2023-03-19T08:56:06;4.25;;;1.55;;
47329;SDS011;33060;50.178;7.570;2023-03-19T08:58:33;2.63;;;1.80;;
47329;SDS011;33060;50.178;7.570;2023-03-19T09:01:04;2.15;;;1.40;;
47329;SDS011;33060;50.178;7.570;2023-03-19T09:03:34;2.45;;;1.08;;
47329;SDS011;33060;50.178;7.570;2023-03-19T09:06:01;3.33;;;1.58;;
47329;SDS011;33060;50.178;7.570;2023-03-19T09:08:29;2.85;;;1.48;;
47329;SDS011;33060;50.178;7.570;2023-03-19T09:10:57;1.60;;;1.10;;
47329;SDS011;33060;50.178;7.570;2023-03-19T09:13:24;2.58;;;1.20;;
47329;SDS011;33060;50.178;7.570;2023-03-19T09:15:51;2.05;;;1.42;;
47329;SDS011;33060;50.178;7.570;2023-03-19T09:18:18;1.90;;;1.30;;
47329;SDS011;33060;50.178;7.570;2023-03-19T09:20:51;2.67;;;1.92;;
47329;SDS011;33060;50.178;7.570;2023-03-19T09:23:19;4.07;;;1.98;;
47329;SDS011;33060;50.178;7.570;2023-03-19T09:25:47;2.58;;;1.40;;
47329;SDS011;33060;50.178;7.570;2023-03-19T09:28:14;3.38;;;1.70;;
47329;SDS011;33060;50.178;7.570;2023-03-19T09:30:40;2.47;;;1.20;;
47329;SDS011;33060;50.178;7.570;2023-03-19T09:33:08;1.83;;;1.25;;
47329;SDS011;33060;50.178;7.570;2023-03-19T09:35:35;1.60;;;1.00;;
47329;SDS011;33060;50.178;7.570;2023-03-19T09:38:05;1.63;;;1.10;;
47329;SDS011;33060;50.178;7.570;2023-03-19T09:40:40;3.45;;;1.45;;
47329;SDS011;33060;50.178;7.570;2023-03-19T09:43:29;3.00;;;1.38;;
47329;SDS011;33060;50.178;7.570;2023-03-19T09:46:00;5.45;;;2.35;;
47329;SDS011;33060;50.178;7.570;2023-03-19T09:48:31;2.75;;;1.40;;
47329;SDS011;33060;50.178;7.570;2023-03-19T09:51:02;3.15;;;1.40;;
47329;SDS011;33060;50.178;7.570;2023-03-19T09:56:00;2.00;;;1.00;;
47329;SDS011;33060;50.178;7.570;2023-03-19T09:58:31;3.25;;;1.58;;
47329;SDS011;33060;50.178;7.570;2023-03-19T10:01:00;2.80;;;1.33;;
47329;SDS011;33060;50.178;7.570;2023-03-19T10:03:49;2.38;;;1.40;;
47329;SDS011;33060;50.178;7.570;2023-03-19T10:09:00;2.75;;;1.60;;
47329;SDS011;33060;50.178;7.570;2023-03-19T10:17:12;4.25;;;2.28;;
47329;SDS011;33060;50.178;7.570;2023-03-19T10:19:46;2.42;;;1.75;;
47329;SDS011;33060;50.178;7.570;2023-03-19T10:22:20;2.60;;;1.27;;
47329;SDS011;33060;50.178;7.570;2023-03-19T10:24:55;2.75;;;1.58;;
47329;SDS011;33060;50.178;7.570;2023-03-19T10:27:24;2.47;;;1.50;;
47329;SDS011;33060;50.178;7.570;2023-03-19T10:29:54;1.13;;;0.90;;
47329;SDS011;33060;50.178;7.570;2023-03-19T10:32:30;2.25;;;1.10;;
47329;SDS011;33060;50.178;7.570;2023-03-19T10:35:06;2.22;;;1.20;;
47329;SDS011;33060;50.178;7.570;2023-03-19T10:37:41;2.65;;;1.45;;
47329;SDS011;33060;50.178;7.570;2023-03-19T10:40:17;2.05;;;1.27;;
47329;SDS011;33060;50.178;7.570;2023-03-19T10:45:29;1.35;;;1.00;;
47329;SDS011;33060;50.178;7.570;2023-03-19T10:48:00;1.80;;;0.90;;
47329;SDS011;33060;50.178;7.570;2023-03-19T10:53:00;3.08;;;1.20;;
47329;SDS011;33060;50.178;7.570;2023-03-19T10:55:31;2.90;;;1.80;;
47329;SDS011;33060;50.178;7.570;2023-03-19T10:58:03;3.47;;;1.85;;
47329;SDS011;33060;50.178;7.570;2023-03-19T11:00:44;1.65;;;1.00;;
47329;SDS011;33060;50.178;7.570;2023-03-19T11:06:13;2.22;;;1.33;;
47329;SDS011;33060;50.178;7.570;2023-03-19T11:11:26;2.22;;;1.00;;
47329;SDS011;33060;50.178;7.570;2023-03-19T11:14:30;2.03;;;0.82;;
47329;SDS011;33060;50.178;7.570;2023-03-19T11:17:05;1.10;;;0.70;;
47329;SDS011;33060;50.178;7.570;2023-03-19T11:19:38;2.45;;;0.90;;
47329;SDS011;33060;50.178;7.570;2023-03-19T11:24:38;1.80;;;1.30;;
47329;SDS011;33060;50.178;7.570;2023-03-19T11:27:07;3.22;;;2.17;;
47329;SDS011;33060;50.178;7.570;2023-03-19T11:29:36;1.90;;;1.70;;
47329;SDS011;33060;50.178;7.570;2023-03-19T11:32:24;1.08;;;0.70;;
47329;SDS011;33060;50.178;7.570;2023-03-19T11:35:06;2.95;;;1.70;;
47329;SDS011;33060;50.178;7.570;2023-03-19T11:40:24;1.45;;;0.90;;
47329;SDS011;33060;50.178;7.570;2023-03-19T11:45:58;1.90;;;1.20;;
47329;SDS011;33060;50.178;7.570;2023-03-19T11:53:59;4.07;;;2.03;;
47329;SDS011;33060;50.178;7.570;2023-03-19T11:59:27;4.25;;;2.20;;
47329;SDS011;33060;50.178;7.570;2023-03-19T12:07:38;2.55;;;1.98;;
47329;SDS011;33060;50.178;7.570;2023-03-19T12:10:27;8.40;;;5.38;;
47329;SDS011;33060;50.178;7.570;2023-03-19T12:18:47;3.25;;;2.13;;
47329;SDS011;33060;50.178;7.570;2023-03-19T12:21:47;3.15;;;2.30;;
47329;SDS011;33060;50.178;7.570;2023-03-19T12:27:24;4.10;;;2.38;;
47329;SDS011;33060;50.178;7.570;2023-03-19T12:30:00;4.53;;;3.10;;
47329;SDS011;33060;50.178;7.570;2023-03-19T12:32:50;2.83;;;2.47;;
47329;SDS011;33060;50.178;7.570;2023-03-19T12:35:34;3.55;;;2.35;;
47329;SDS011;33060;50.178;7.570;2023-03-19T12:43:34;4.30;;;3.10;;
47329;SDS011;33060;50.178;7.570;2023-03-19T12:48:38;3.97;;;3.00;;
47329;SDS011;33060;50.178;7.570;2023-03-19T12:51:11;3.83;;;2.75;;
47329;SDS011;33060;50.178;7.570;2023-03-19T12:53:47;4.68;;;3.30;;
47329;SDS011;33060;50.178;7.570;2023-03-19T12:57:02;3.85;;;3.00;;
47329;SDS011;33060;50.178;7.570;2023-03-19T13:01:50;3.22;;;2.88;;
47329;SDS011;33060;50.178;7.570;2023-03-19T13:04:23;3.30;;;3.00;;
47329;SDS011;33060;50.178;7.570;2023-03-19T13:09:31;4.50;;;3.00;;
47329;SDS011;33060;50.178;7.570;2023-03-19T13:12:25;5.32;;;3.38;;
47329;SDS011;33060;50.178;7.570;2023-03-19T13:15:36;3.17;;;2.88;;
47329;SDS011;33060;50.178;7.570;2023-03-19T13:17:53;2.63;;;2.40;;
47329;SDS011;33060;50.178;7.570;2023-03-19T13:23:21;3.25;;;2.95;;
47329;SDS011;33060;50.178;7.570;2023-03-19T13:25:53;2.40;;;2.20;;
47329;SDS011;33060;50.178;7.570;2023-03-19T13:28:26;3.83;;;2.75;;
47329;SDS011;33060;50.178;7.570;2023-03-19T13:31:06;3.53;;;3.22;;
47329;SDS011;33060;50.178;7.570;2023-03-19T13:34:03;3.17;;;2.80;;
47329;SDS011;33060;50.178;7.570;2023-03-19T13:36:38;2.85;;;2.50;;
47329;SDS011;33060;50.178;7.570;2023-03-19T13:39:39;3.75;;;2.65;;
47329;SDS011;33060;50.178;7.570;2023-03-19T13:42:15;2.88;;;2.53;;
47329;SDS011;33060;50.178;7.570;2023-03-19T13:44:53;4.90;;;2.47;;
47329;SDS011;33060;50.178;7.570;2023-03-19T13:50:06;3.50;;;2.53;;
47329;SDS011;33060;50.178;7.570;2023-03-19T13:52:45;4.88;;;2.60;;
47329;SDS011;33060;50.178;7.570;2023-03-19T13:57:54;3.40;;;3.10;;
47329;SDS011;33060;50.178;7.570;2023-03-19T14:03:14;4.15;;;3.80;;
47329;SDS011;33060;50.178;7.570;2023-03-19T14:05:45;3.40;;;3.10;;
47329;SDS011;33060;50.178;7.570;2023-03-19T14:08:19;4.25;;;3.85;;
47329;SDS011;33060;50.178;7.570;2023-03-19T14:10:49;5.03;;;4.57;;
47329;SDS011;33060;50.178;7.570;2023-03-19T14:13:20;2.58;;;2.35;;
47329;SDS011;33060;50.178;7.570;2023-03-19T14:15:50;3.40;;;2.30;;
47329;SDS011;33060;50.178;7.570;2023-03-19T14:18:20;2.60;;;2.20;;
47329;SDS011;33060;50.178;7.570;2023-03-19T14:20:58;2.20;;;1.88;;
47329;SDS011;33060;50.178;7.570;2023-03-19T14:23:31;3.10;;;2.25;;
47329;SDS011;33060;50.178;7.570;2023-03-19T14:29:00;2.20;;;1.83;;
47329;SDS011;33060;50.178;7.570;2023-03-19T14:36:40;2.72;;;2.28;;
47329;SDS011;33060;50.178;7.570;2023-03-19T14:39:23;2.55;;;1.70;;
47329;SDS011;33060;50.178;7.570;2023-03-19T14:41:56;2.78;;;2.50;;
47329;SDS011;33060;50.178;7.570;2023-03-19T14:52:55;4.15;;;2.40;;
47329;SDS011;33060;50.178;7.570;2023-03-19T14:55:40;3.38;;;2.63;;
47329;SDS011;33060;50.178;7.570;2023-03-19T14:58:10;2.92;;;2.40;;
47329;SDS011;33060;50.178;7.570;2023-03-19T15:00:42;2.50;;;2.30;;
47329;SDS011;33060;50.178;7.570;2023-03-19T15:03:31;2.13;;;1.92;;
47329;SDS011;33060;50.178;7.570;2023-03-19T15:06:03;2.42;;;1.85;;
47329;SDS011;33060;50.178;7.570;2023-03-19T15:08:32;1.60;;;1.45;;
47329;SDS011;33060;50.178;7.570;2023-03-19T15:13:50;2.03;;;1.70;;
47329;SDS011;33060;50.178;7.570;2023-03-19T15:18:58;1.80;;;1.50;;
47329;SDS011;33060;50.178;7.570;2023-03-19T15:21:27;2.13;;;1.80;;
47329;SDS011;33060;50.178;7.570;2023-03-19T15:23:56;1.70;;;1.45;;
47329;SDS011;33060;50.178;7.570;2023-03-19T15:26:30;2.15;;;1.40;;
47329;SDS011;33060;50.178;7.570;2023-03-19T15:28:58;1.90;;;1.67;;
47329;SDS011;33060;50.178;7.570;2023-03-19T15:31:45;2.88;;;1.90;;
47329;SDS011;33060;50.178;7.570;2023-03-19T15:34:27;2.05;;;1.77;;
47329;SDS011;33060;50.178;7.570;2023-03-19T15:37:12;1.75;;;1.50;;
47329;SDS011;33060;50.178;7.570;2023-03-19T15:39:44;2.75;;;1.70;;
47329;SDS011;33060;50.178;7.570;2023-03-19T15:42:16;2.22;;;1.55;;
47329;SDS011;33060;50.178;7.570;2023-03-19T15:44:48;3.13;;;1.90;;
47329;SDS011;33060;50.178;7.570;2023-03-19T15:47:21;2.38;;;1.90;;
47329;SDS011;33060;50.178;7.570;2023-03-19T15:49:57;3.70;;;2.63;;
47329;SDS011;33060;50.178;7.570;2023-03-19T15:52:27;3.55;;;2.17;;
47329;SDS011;33060;50.178;7.570;2023-03-19T15:54:58;3.30;;;2.05;;
47329;SDS011;33060;50.178;7.570;2023-03-19T15:57:26;2.08;;;1.88;;
47329;SDS011;33060;50.178;7.570;2023-03-19T15:59:54;3.05;;;2.10;;
47329;SDS011;33060;50.178;7.570;2023-03-19T16:02:26;2.20;;;1.98;;
47329;SDS011;33060;50.178;7.570;2023-03-19T16:04:56;1.90;;;1.70;;
47329;SDS011;33060;50.178;7.570;2023-03-19T16:07:43;2.05;;;1.80;;
47329;SDS011;33060;50.178;7.570;2023-03-19T16:15:55;2.00;;;1.80;;
47329;SDS011;33060;50.178;7.570;2023-03-19T16:18:27;3.90;;;2.92;;
47329;SDS011;33060;50.178;7.570;2023-03-19T16:21:10;3.53;;;2.50;;
47329;SDS011;33060;50.178;7.570;2023-03-19T16:23:48;2.38;;;2.10;;
47329;SDS011;33060;50.178;7.570;2023-03-19T16:26:19;2.63;;;2.20;;
47329;SDS011;33060;50.178;7.570;2023-03-19T16:28:53;3.08;;;2.30;;
47329;SDS011;33060;50.178;7.570;2023-03-19T16:31:41;4.65;;;2.80;;
47329;SDS011;33060;50.178;7.570;2023-03-19T16:34:22;3.15;;;2.85;;
47329;SDS011;33060;50.178;7.570;2023-03-19T16:36:51;4.35;;;3.95;;
47329;SDS011;33060;50.178;7.570;2023-03-19T16:39:31;4.38;;;3.30;;
47329;SDS011;33060;50.178;7.570;2023-03-19T16:44:39;4.57;;;3.60;;
47329;SDS011;33060;50.178;7.570;2023-03-19T16:47:10;4.68;;;4.18;;
47329;SDS011;33060;50.178;7.570;2023-03-19T16:49:38;4.75;;;4.35;;
47329;SDS011;33060;50.178;7.570;2023-03-19T16:52:08;6.50;;;5.03;;
47329;SDS011;33060;50.178;7.570;2023-03-19T16:54:41;5.18;;;4.68;;
47329;SDS011;33060;50.178;7.570;2023-03-19T16:57:11;5.22;;;4.78;;
47329;SDS011;33060;50.178;7.570;2023-03-19T16:59:41;6.63;;;5.93;;
47329;SDS011;33060;50.178;7.570;2023-03-19T17:02:09;6.13;;;5.63;;
47329;SDS011;33060;50.178;7.570;2023-03-19T17:04:36;5.88;;;5.38;;
47329;SDS011;33060;50.178;7.570;2023-03-19T17:07:03;5.70;;;5.10;;